Time;durP1;ratioP1;P1;durP2;ratioP2;P2;SDS_P1;SDS_P2;PMS_P1;PMS_P2;Temp;Humidity;BMP_temperature;BMP_pressure;BME280_temperature;BME280_humidity;BME280_pressure;Samples;Min_cycle;Max_cycle;Signal;HPM_P1;HPM_P2
2022/01/28 00:01:26;;;;;;;74.90;33.80;;;;;0.50;97499.60;;;;111837;1241;41191;-61
2022/01/28 00:04:01;;;;;;;67.20;28.70;;;;;0.50;97487.80;;;;111914;1241;41800;-59
2022/01/28 00:06:31;;;;;;;64.00;29.30;;;;;0.50;97488.80;;;;111864;1241;42406;-61
2022/01/28 00:09:01;;;;;;;68.60;29.30;;;;;0.50;97487.80;;;;111887;1241;41327;-62
2022/01/28 00:11:31;;;;;;;65.30;30.20;;;;;0.50;97488.60;;;;111817;1241;41136;-62
2022/01/28 00:36:47;;;;;;;61.00;26.70;;;;;0.50;97484.20;;;;111641;1243;41518;-61
2022/01/28 00:39:17;;;;;;;52.20;23.30;;;;;0.50;97487.20;;;;111416;1244;41259;-61
2022/01/28 00:41:47;;;;;;;54.60;24.00;;;;;0.50;97491.20;;;;111652;1242;40928;-61
2022/01/28 00:44:16;;;;;;;49.50;23.00;;;;;0.50;97479.80;;;;111737;1242;41258;-59
2022/01/28 00:46:46;;;;;;;55.00;23.90;;;;;0.50;97478.20;;;;111766;1243;41777;-60
2022/01/28 00:49:16;;;;;;;54.20;23.20;;;;;0.50;97472.60;;;;111620;1242;41148;-60
2022/01/28 00:51:46;;;;;;;68.50;30.30;;;;;0.50;97467.20;;;;111457;1242;41242;-60
2022/01/28 00:54:17;;;;;;;70.90;31.30;;;;;0.50;97466.60;;;;111464;1244;41289;-61
2022/01/28 00:56:47;;;;;;;72.40;31.00;;;;;0.50;97461.80;;;;111531;1244;41145;-62
2022/01/28 00:59:17;;;;;;;70.30;30.60;;;;;0.50;97455.80;;;;111720;1243;41273;-63
2022/01/28 01:01:46;;;;;;;66.20;27.40;;;;;0.50;97450.60;;;;111617;1244;41133;-63
2022/01/28 01:04:18;;;;;;;58.60;26.10;;;;;0.50;97444.20;;;;111665;1243;42212;-61
2022/01/28 01:06:50;;;;;;;53.90;23.70;;;;;0.50;97454.80;;;;111774;1243;41179;-63
2022/01/28 01:09:20;;;;;;;49.20;21.20;;;;;0.52;97447.20;;;;111578;1241;41428;-62
2022/01/28 01:11:49;;;;;;;45.60;19.90;;;;;0.50;97439.40;;;;111761;1244;41132;-62
2022/01/28 01:14:19;;;;;;;45.60;19.70;;;;;0.52;97439.60;;;;111477;1244;41246;-62
2022/01/28 01:19:37;;;;;;;51.10;19.80;;;;;0.50;97425.60;;;;111577;1244;41780;-65
2022/01/28 01:22:08;;;;;;;46.30;19.10;;;;;0.60;97423.40;;;;111493;1243;41245;-62
2022/01/28 01:24:48;;;;;;;50.20;19.50;;;;;0.60;97422.40;;;;111449;1244;41612;-65
2022/01/28 01:27:20;;;;;;;49.80;20.40;;;;;0.60;97411.40;;;;111689;1242;41130;-63
2022/01/28 01:29:50;;;;;;;51.90;21.30;;;;;0.58;97408.40;;;;111706;1243;41154;-64
2022/01/28 01:32:21;;;;;;;49.80;21.70;;;;;0.56;97409.60;;;;111872;1241;41138;-64
2022/01/28 01:34:50;;;;;;;50.60;22.40;;;;;0.50;97409.60;;;;111478;1242;41136;-64
2022/01/28 01:37:20;;;;;;;54.40;23.00;;;;;0.50;97407.60;;;;111910;1241;41154;-64
2022/01/28 01:39:51;;;;;;;48.80;22.20;;;;;0.50;97403.40;;;;111791;1241;41117;-64
2022/01/28 01:42:32;;;;;;;48.80;22.10;;;;;0.50;97402.80;;;;111648;1243;41265;-62
2022/01/28 01:53:49;;;;;;;44.30;19.90;;;;;0.54;97391.00;;;;111738;1243;42378;-63
2022/01/28 01:56:20;;;;;;;46.10;20.30;;;;;0.50;97385.60;;;;111585;1241;41282;-62
2022/01/28 01:58:50;;;;;;;41.80;18.80;;;;;0.50;97380.20;;;;111804;1241;41161;-62
2022/01/28 02:01:20;;;;;;;45.00;18.00;;;;;0.50;97381.60;;;;111782;1241;41182;-61
2022/01/28 02:03:50;;;;;;;45.80;19.60;;;;;0.50;97378.20;;;;111820;1242;42056;-59
2022/01/28 02:06:22;;;;;;;41.90;19.10;;;;;0.50;97372.00;;;;111848;1241;41713;-60
2022/01/28 02:08:52;;;;;;;41.90;18.30;;;;;0.50;97374.20;;;;111817;1241;41883;-62
2022/01/28 02:11:21;;;;;;;44.20;19.50;;;;;0.50;97369.60;;;;111836;1241;41126;-60
2022/01/28 02:13:51;;;;;;;43.80;18.60;;;;;0.50;97361.60;;;;111838;1241;42542;-64
2022/01/28 02:16:22;;;;;;;41.80;18.30;;;;;0.50;97361.80;;;;111842;1241;41143;-65
2022/01/28 02:18:55;;;;;;;43.40;18.60;;;;;0.50;97362.60;;;;111872;1240;41528;-62
2022/01/28 02:21:25;;;;;;;43.70;19.20;;;;;0.50;97364.20;;;;111890;1241;42131;-59
2022/01/28 02:24:01;;;;;;;41.80;18.80;;;;;0.50;97359.40;;;;111812;1241;41640;-64
2022/01/28 02:26:31;;;;;;;42.50;18.20;;;;;0.50;97358.80;;;;111696;1242;41156;-60
2022/01/28 02:29:10;;;;;;;42.30;18.30;;;;;0.50;97355.80;;;;111898;1241;41128;-64
2022/01/28 02:31:41;;;;;;;37.90;16.10;;;;;0.50;97352.60;;;;111627;1244;42247;-61
2022/01/28 02:34:12;;;;;;;33.90;14.70;;;;;0.48;97338.80;;;;111814;1241;41155;-60
2022/01/28 02:36:41;;;;;;;42.10;18.30;;;;;0.40;97340.60;;;;111833;1241;41377;-62
2022/01/28 02:39:12;;;;;;;35.50;16.20;;;;;0.40;97337.60;;;;111802;1241;41170;-62
2022/01/28 02:41:45;;;;;;;36.40;16.60;;;;;0.40;97334.60;;;;111780;1241;41129;-60
2022/01/28 02:44:42;;;;;;;37.10;16.50;;;;;0.40;97342.80;;;;111782;1241;41157;-62
2022/01/28 02:47:08;;;;;;;38.60;16.30;;;;;0.40;97348.60;;;;111501;1244;41132;-60
2022/01/28 02:49:38;;;;;;;39.40;16.40;;;;;0.40;97343.20;;;;111798;1241;41570;-64
2022/01/28 02:52:16;;;;;;;34.40;15.00;;;;;0.40;97338.20;;;;111778;1241;41126;-62
2022/01/28 02:54:49;;;;;;;34.90;14.80;;;;;0.40;97337.00;;;;111497;1244;41981;-63
2022/01/28 02:57:25;;;;;;;37.80;16.10;;;;;0.40;97333.20;;;;111646;1244;41266;-62
2022/01/28 02:59:55;;;;;;;33.20;14.40;;;;;0.40;97330.80;;;;111792;1241;41149;-62
2022/01/28 03:02:25;;;;;;;35.50;14.90;;;;;0.40;97331.20;;;;111722;1241;41111;-61
2022/01/28 03:07:28;;;;;;;36.10;15.00;;;;;0.32;97341.00;;;;111747;1241;41253;-61
2022/01/28 03:12:59;;;;;;;34.70;14.70;;;;;0.40;97342.20;;;;111816;1242;41175;-62
2022/01/28 03:15:26;;;;;;;34.00;14.70;;;;;0.38;97343.20;;;;111451;1244;41727;-60
2022/01/28 03:18:10;;;;;;;38.30;15.80;;;;;0.38;97350.20;;;;111590;1243;41323;-63
2022/01/28 03:20:56;;;;;;;35.90;15.00;;;;;0.32;97345.20;;;;111794;1241;41290;-61
2022/01/28 03:23:25;;;;;;;32.20;14.20;;;;;0.40;97337.40;;;;111773;1241;41128;-62
2022/01/28 03:25:55;;;;;;;33.10;14.70;;;;;0.40;97340.80;;;;111714;1243;41591;-62
2022/01/28 03:28:25;;;;;;;36.10;14.20;;;;;0.40;97340.00;;;;111656;1241;41504;-65
2022/01/28 03:30:54;;;;;;;33.30;14.20;;;;;0.40;97334.00;;;;111729;1241;41597;-64
2022/01/28 03:33:24;;;;;;;39.30;14.80;;;;;0.40;97332.60;;;;111748;1241;41267;-62
2022/01/28 03:35:54;;;;;;;34.90;14.80;;;;;0.38;97332.60;;;;111758;1243;41160;-63
2022/01/28 03:38:24;;;;;;;39.90;15.40;;;;;0.40;97329.40;;;;111781;1242;41251;-60
2022/01/28 03:40:56;;;;;;;34.90;16.00;;;;;0.40;97326.80;;;;111434;1241;41380;-62
2022/01/28 03:43:25;;;;;;;45.70;18.00;;;;;0.40;97328.20;;;;111559;1243;41128;-60
2022/01/28 03:45:55;;;;;;;54.50;20.10;;;;;0.38;97324.20;;;;111808;1241;42367;-63
2022/01/28 03:48:24;;;;;;;49.50;19.20;;;;;0.40;97322.20;;;;111604;1244;42017;-63
2022/01/28 03:50:54;;;;;;;52.90;20.10;;;;;0.40;97317.20;;;;111804;1241;41155;-60
2022/01/28 03:53:24;;;;;;;39.30;16.80;;;;;0.40;97321.60;;;;111453;1244;42507;-60
2022/01/28 03:55:57;;;;;;;41.10;15.60;;;;;0.40;97323.20;;;;111854;1241;41896;-61
2022/01/28 03:58:27;;;;;;;40.20;14.70;;;;;0.40;97324.60;;;;111836;1241;41124;-60
2022/01/28 04:00:58;;;;;;;36.30;14.30;;;;;0.40;97316.20;;;;111799;1241;42737;-62
2022/01/28 04:11:29;;;;;;;37.80;16.00;;;;;0.40;97275.40;;;;111474;1243;41225;-59
2022/01/28 04:14:11;;;;;;;35.50;14.60;;;;;0.40;97288.40;;;;111423;1241;41607;-60
2022/01/28 04:19:29;;;;;;;33.40;13.70;;;;;0.40;97291.60;;;;111798;1241;41353;-61
2022/01/28 04:21:59;;;;;;;30.90;13.10;;;;;0.40;97288.00;;;;111740;1242;41272;-61
2022/01/28 04:24:28;;;;;;;30.50;13.90;;;;;0.40;97290.60;;;;111787;1241;41248;-62
2022/01/28 04:26:58;;;;;;;32.50;13.70;;;;;0.40;97286.40;;;;111816;1241;41519;-60
2022/01/28 04:29:28;;;;;;;28.30;13.20;;;;;0.40;97291.80;;;;111816;1241;41130;-62
2022/01/28 04:31:58;;;;;;;35.40;13.90;;;;;0.42;97283.20;;;;111825;1241;41386;-61
2022/01/28 04:34:28;;;;;;;31.00;13.80;;;;;0.42;97281.20;;;;111740;1241;41481;-60
2022/01/28 04:37:08;;;;;;;29.00;12.70;;;;;0.48;97281.60;;;;111544;1244;42372;-61
2022/01/28 04:39:56;;;;;;;34.80;14.30;;;;;0.50;97283.60;;;;111869;1242;41139;-60
2022/01/28 04:45:38;;;;;;;34.00;13.50;;;;;0.50;97276.20;;;;111781;1242;41235;-62
2022/01/28 04:48:17;;;;;;;31.50;13.60;;;;;0.50;97280.60;;;;111594;1243;42631;-60
2022/01/28 04:51:02;;;;;;;34.00;14.00;;;;;0.50;97288.40;;;;111502;1243;41198;-61
2022/01/28 04:53:48;;;;;;;33.00;13.60;;;;;0.60;97293.80;;;;111639;1241;41265;-62
2022/01/28 05:02:04;;;;;;;33.20;13.10;;;;;0.60;97292.00;;;;111735;1242;42962;-60
2022/01/28 05:27:08;;;;;;;31.90;13.50;;;;;0.40;97261.60;;;;111068;1248;41337;-61
2022/01/28 05:29:39;;;;;;;33.30;12.80;;;;;0.50;97241.40;;;;111101;1248;41219;-61
2022/01/28 05:32:09;;;;;;;27.10;13.00;;;;;0.50;97230.80;;;;111418;1243;42013;-63
2022/01/28 05:34:40;;;;;;;35.10;14.20;;;;;0.50;97234.80;;;;111806;1241;41791;-63
2022/01/28 05:37:09;;;;;;;30.90;14.20;;;;;0.50;97260.40;;;;111539;1243;41126;-62
2022/01/28 05:39:38;;;;;;;36.20;15.90;;;;;0.54;97275.20;;;;111778;1241;41256;-63
2022/01/28 05:42:07;;;;;;;37.30;16.90;;;;;0.58;97278.60;;;;111484;1244;41763;-63
2022/01/28 05:44:37;;;;;;;36.80;15.50;;;;;0.60;97283.40;;;;111815;1241;41129;-63
2022/01/28 05:47:07;;;;;;;36.20;16.10;;;;;0.60;97289.80;;;;111715;1242;41129;-63
2022/01/28 05:49:36;;;;;;;35.10;15.30;;;;;0.60;97287.40;;;;111846;1241;41139;-63
2022/01/28 05:52:06;;;;;;;32.40;15.10;;;;;0.62;97287.60;;;;111834;1241;41145;-63
2022/01/28 05:54:35;;;;;;;31.80;15.10;;;;;0.70;97299.40;;;;111789;1241;41247;-62
2022/01/28 05:57:05;;;;;;;33.20;14.80;;;;;0.70;97301.00;;;;111784;1241;41253;-61
2022/01/28 05:59:34;;;;;;;31.60;14.50;;;;;0.70;97304.20;;;;111758;1241;41165;-61
2022/01/28 06:02:04;;;;;;;35.80;14.60;;;;;0.70;97308.00;;;;111760;1241;41391;-60
2022/01/28 06:04:36;;;;;;;39.20;15.40;;;;;0.70;97311.00;;;;111842;1241;41925;-60
2022/01/28 06:07:05;;;;;;;35.80;14.70;;;;;0.70;97306.00;;;;111609;1241;42055;-61
2022/01/28 06:09:34;;;;;;;33.60;14.60;;;;;0.70;97301.80;;;;111752;1240;41307;-61
2022/01/28 06:12:04;;;;;;;31.50;13.80;;;;;0.70;97307.80;;;;111487;1242;42231;-62
2022/01/28 06:14:33;;;;;;;32.20;13.90;;;;;0.74;97300.20;;;;111808;1241;42112;-62
2022/01/28 06:17:03;;;;;;;34.20;14.60;;;;;0.80;97296.60;;;;111823;1240;41166;-62
2022/01/28 06:19:33;;;;;;;35.60;15.60;;;;;0.80;97304.80;;;;111907;1241;41138;-62
2022/01/28 06:22:03;;;;;;;35.30;15.70;;;;;0.80;97316.80;;;;111794;1241;41589;-62
2022/01/28 06:24:32;;;;;;;35.30;15.20;;;;;0.80;97315.20;;;;111817;1241;41744;-62
2022/01/28 06:27:01;;;;;;;31.20;14.20;;;;;0.88;97318.40;;;;111856;1241;41870;-61
2022/01/28 06:29:30;;;;;;;32.80;14.40;;;;;0.90;97316.80;;;;111771;1241;41591;-61
2022/01/28 06:32:00;;;;;;;31.60;14.50;;;;;0.90;97316.40;;;;111768;1241;41509;-60
2022/01/28 06:34:29;;;;;;;35.50;14.90;;;;;0.90;97320.60;;;;111810;1241;41445;-60
2022/01/28 06:36:59;;;;;;;33.00;15.00;;;;;0.90;97335.80;;;;111502;1241;41265;-61
2022/01/28 06:39:32;;;;;;;39.30;16.40;;;;;0.90;97333.80;;;;111804;1241;41598;-59
2022/01/28 06:42:01;;;;;;;36.00;17.90;;;;;0.96;97334.20;;;;111565;1243;41198;-61
2022/01/28 06:44:31;;;;;;;40.20;18.00;;;;;1.00;97331.40;;;;111480;1241;41236;-62
2022/01/28 06:47:00;;;;;;;44.10;19.10;;;;;1.00;97322.40;;;;111783;1241;41250;-61
2022/01/28 06:49:31;;;;;;;39.90;19.60;;;;;1.00;97324.80;;;;111825;1241;41153;-61
2022/01/28 06:52:00;;;;;;;36.70;18.40;;;;;1.00;97321.80;;;;111473;1244;41261;-61
2022/01/28 06:54:29;;;;;;;40.90;17.70;;;;;1.00;97311.40;;;;111815;1242;41126;-61
2022/01/28 06:56:59;;;;;;;46.10;21.50;;;;;1.00;97320.40;;;;111685;1241;41360;-61
2022/01/28 06:59:28;;;;;;;47.20;21.60;;;;;0.90;97326.00;;;;111681;1242;41240;-61
2022/01/28 07:01:57;;;;;;;44.90;21.10;;;;;0.94;97333.20;;;;111744;1241;41130;-59
2022/01/28 07:04:26;;;;;;;46.80;21.10;;;;;1.00;97336.80;;;;111567;1242;41723;-61
2022/01/28 07:06:55;;;;;;;45.30;21.00;;;;;1.00;97344.00;;;;111745;1241;41899;-62
2022/01/28 07:09:25;;;;;;;49.70;23.00;;;;;1.00;97345.80;;;;111825;1241;41114;-59
2022/01/28 07:11:53;;;;;;;48.90;20.50;;;;;1.06;97322.40;;;;111737;1241;41373;-59
2022/01/28 07:14:22;;;;;;;49.80;23.30;;;;;1.10;97325.00;;;;111800;1241;41187;-60
2022/01/28 07:16:51;;;;;;;43.20;20.50;;;;;1.10;97327.60;;;;111718;1241;41825;-60
2022/01/28 07:19:21;;;;;;;44.80;20.20;;;;;1.14;97334.60;;;;111763;1241;41143;-65
2022/01/28 07:21:50;;;;;;;47.50;20.80;;;;;1.20;97350.60;;;;111637;1241;41156;-61
2022/01/28 07:24:19;;;;;;;43.80;20.80;;;;;1.20;97356.20;;;;111808;1241;41123;-61
2022/01/28 07:26:49;;;;;;;45.50;20.10;;;;;1.20;97354.00;;;;111522;1243;41210;-63
2022/01/28 07:29:18;;;;;;;51.70;21.30;;;;;1.22;97349.60;;;;111813;1241;41124;-61
2022/01/28 07:31:47;;;;;;;45.70;21.30;;;;;1.30;97347.00;;;;111800;1241;41138;-62
2022/01/28 07:34:17;;;;;;;48.70;21.80;;;;;1.30;97341.20;;;;111859;1241;41870;-63
2022/01/28 07:36:46;;;;;;;50.00;22.20;;;;;1.30;97341.20;;;;111735;1241;41132;-63
2022/01/28 07:39:15;;;;;;;46.50;22.40;;;;;1.32;97346.00;;;;111764;1241;41947;-60
2022/01/28 07:41:44;;;;;;;45.20;20.90;;;;;1.40;97346.60;;;;111858;1241;41149;-60
2022/01/28 07:44:13;;;;;;;57.90;24.60;;;;;1.40;97343.20;;;;111588;1243;41256;-64
2022/01/28 07:46:43;;;;;;;47.40;21.70;;;;;1.40;97337.40;;;;111627;1241;41242;-63
2022/01/28 07:49:16;;;;;;;48.00;21.40;;;;;1.48;97333.20;;;;111802;1243;41234;-60
2022/01/28 07:51:45;;;;;;;39.60;19.30;;;;;1.50;97337.40;;;;111844;1241;41138;-62
2022/01/28 07:54:14;;;;;;;45.20;19.50;;;;;1.58;97337.20;;;;111751;1241;41117;-62
2022/01/28 07:56:46;;;;;;;47.80;21.30;;;;;1.52;97334.80;;;;111835;1241;41237;-61
2022/01/28 07:59:15;;;;;;;46.90;20.90;;;;;1.50;97338.80;;;;111868;1241;41138;-62
2022/01/28 08:01:44;;;;;;;43.10;19.40;;;;;1.50;97330.40;;;;111806;1241;42359;-61
2022/01/28 08:04:13;;;;;;;40.50;19.80;;;;;1.60;97324.40;;;;111765;1242;41117;-61
2022/01/28 08:06:43;;;;;;;39.90;18.40;;;;;1.66;97310.00;;;;111777;1241;41357;-64
2022/01/28 08:09:11;;;;;;;42.70;19.40;;;;;1.74;97308.20;;;;111824;1240;41156;-64
2022/01/28 08:11:40;;;;;;;40.70;18.00;;;;;1.90;97305.60;;;;111783;1241;41936;-63
2022/01/28 08:14:10;;;;;;;40.90;18.70;;;;;2.00;97300.00;;;;111710;1240;41610;-63
2022/01/28 08:16:40;;;;;;;41.40;19.20;;;;;2.12;97295.40;;;;111753;1241;42001;-64
2022/01/28 08:19:09;;;;;;;38.50;18.50;;;;;2.28;97285.80;;;;111885;1241;41126;-65
2022/01/28 08:21:38;;;;;;;41.20;19.70;;;;;2.40;97290.40;;;;111801;1241;41151;-62
2022/01/28 08:24:07;;;;;;;38.30;16.80;;;;;2.52;97300.20;;;;111745;1241;41133;-62
2022/01/28 08:26:37;;;;;;;41.00;18.00;;;;;2.80;97297.20;;;;111659;1241;41743;-62
2022/01/28 08:29:06;;;;;;;37.80;17.60;;;;;3.00;97297.40;;;;111732;1241;41308;-63
2022/01/28 08:31:36;;;;;;;36.70;16.70;;;;;3.20;97293.80;;;;111698;1241;41154;-64
2022/01/28 08:34:06;;;;;;;39.90;18.50;;;;;3.40;97294.40;;;;111693;1242;41236;-62
2022/01/28 08:36:35;;;;;;;37.20;17.50;;;;;3.50;97295.60;;;;111357;1241;41174;-63
2022/01/28 08:39:06;;;;;;;38.30;17.70;;;;;3.60;97296.20;;;;111748;1241;41136;-64
2022/01/28 08:41:36;;;;;;;40.50;18.30;;;;;3.60;97296.00;;;;111714;1241;41136;-63
2022/01/28 08:44:06;;;;;;;55.60;23.80;;;;;3.70;97295.20;;;;111710;1241;41176;-64
2022/01/28 08:46:35;;;;;;;47.60;23.90;;;;;3.80;97295.20;;;;111730;1241;41145;-64
2022/01/28 08:49:04;;;;;;;50.50;23.30;;;;;3.80;97302.60;;;;111478;1243;41312;-65
2022/01/28 08:51:37;;;;;;;47.30;22.90;;;;;3.80;97304.20;;;;111771;1241;42335;-62
2022/01/28 08:54:06;;;;;;;45.20;21.90;;;;;3.78;97300.80;;;;111743;1241;41150;-64
2022/01/28 08:56:35;;;;;;;42.90;20.60;;;;;3.70;97294.60;;;;111682;1242;41183;-62
2022/01/28 08:59:15;;;;;;;40.50;19.80;;;;;3.70;97292.20;;;;111627;1241;42211;-64
2022/01/28 09:01:44;;;;;;;40.80;17.90;;;;;3.70;97295.20;;;;111401;1241;380541;-60
2022/01/28 09:04:14;;;;;;;46.40;21.90;;;;;3.60;97293.80;;;;111719;1241;41208;-63
2022/01/28 09:06:43;;;;;;;44.10;20.80;;;;;3.40;97297.20;;;;111754;1242;41642;-64
2022/01/28 09:09:11;;;;;;;38.00;18.10;;;;;3.00;97303.60;;;;111711;1241;41604;-64
2022/01/28 09:12:04;;;;;;;40.70;19.00;;;;;2.90;97314.40;;;;111686;1241;42379;-62
2022/01/28 09:14:34;;;;;;;41.30;20.10;;;;;2.56;97330.20;;;;111684;1241;41139;-61
2022/01/28 09:17:03;;;;;;;40.90;20.10;;;;;2.50;97332.20;;;;111734;1241;41834;-62
2022/01/28 09:19:32;;;;;;;42.50;20.50;;;;;2.28;97334.60;;;;111794;1243;41945;-61
2022/01/28 09:22:01;;;;;;;39.00;19.50;;;;;2.20;97335.80;;;;111752;1241;41139;-64
2022/01/28 09:24:30;;;;;;;39.20;18.40;;;;;2.26;97341.00;;;;111763;1241;41306;-63
2022/01/28 09:26:59;;;;;;;37.90;19.20;;;;;2.18;97353.20;;;;111842;1241;41931;-64
2022/01/28 09:29:28;;;;;;;42.90;20.40;;;;;2.08;97354.00;;;;111749;1241;41874;-64
2022/01/28 09:31:59;;;;;;;46.00;23.30;;;;;1.98;97355.20;;;;111780;1241;41144;-62
2022/01/28 09:34:28;;;;;;;52.50;23.80;;;;;1.70;97352.40;;;;111782;1240;42747;-61
2022/01/28 09:36:57;;;;;;;49.90;23.50;;;;;1.60;97358.40;;;;111743;1241;41159;-61
2022/01/28 09:39:29;;;;;;;46.90;21.80;;;;;1.60;97365.20;;;;111749;1241;41505;-61
2022/01/28 09:42:02;;;;;;;43.90;21.80;;;;;1.64;97362.80;;;;111476;1243;41181;-61
2022/01/28 09:44:34;;;;;;;44.70;21.90;;;;;1.60;97368.20;;;;111680;1241;41140;-60
2022/01/28 09:47:03;;;;;;;44.30;20.80;;;;;1.68;97367.20;;;;111353;1245;41441;-65
2022/01/28 09:49:32;;;;;;;45.60;20.30;;;;;1.68;97362.80;;;;111504;1243;41147;-61
2022/01/28 09:52:01;;;;;;;45.10;21.30;;;;;1.60;97366.40;;;;111688;1242;41179;-66
2022/01/28 09:54:31;;;;;;;45.90;22.50;;;;;1.58;97360.40;;;;111801;1241;41263;-63
2022/01/28 09:57:02;;;;;;;48.40;24.30;;;;;1.44;97359.60;;;;111548;1244;41144;-63
2022/01/28 09:59:31;;;;;;;44.40;22.80;;;;;1.36;97357.00;;;;111657;1241;41135;-62
2022/01/28 10:02:00;;;;;;;48.70;22.40;;;;;1.40;97353.40;;;;111707;1241;41121;-63
2022/01/28 10:04:29;;;;;;;46.80;22.00;;;;;1.40;97349.80;;;;111792;1241;41259;-65
2022/01/28 10:06:58;;;;;;;48.70;23.70;;;;;1.30;97347.40;;;;111645;1243;41411;-65
2022/01/28 10:09:27;;;;;;;47.60;22.60;;;;;1.40;97339.00;;;;111784;1241;41528;-62
2022/01/28 10:12:13;;;;;;;51.80;25.10;;;;;1.40;97334.60;;;;111763;1243;41133;-61
2022/01/28 10:15:04;;;;;;;43.90;21.70;;;;;1.40;97333.60;;;;111787;1241;41267;-63
2022/01/28 10:17:53;;;;;;;;;;;;;1.44;97328.80;;;;111471;1242;41148;-62
2022/01/28 10:20:24;;;;;;;56.50;26.90;;;;;1.48;97326.20;;;;111788;1241;41600;-63
2022/01/28 10:22:58;;;;;;;52.30;24.90;;;;;1.40;97328.00;;;;111774;1241;42361;-62
2022/01/28 10:25:33;;;;;;;52.70;24.90;;;;;1.38;97329.80;;;;111845;1241;41370;-60
2022/01/28 10:28:08;;;;;;;55.80;25.30;;;;;1.30;97331.40;;;;111754;1241;41178;-63
2022/01/28 10:30:43;;;;;;;52.40;24.60;;;;;1.30;97326.20;;;;111711;1241;41591;-61
2022/01/28 10:33:23;;;;;;;56.40;25.10;;;;;1.32;97328.00;;;;111714;1241;41371;-60
2022/01/28 10:35:54;;;;;;;56.00;25.20;;;;;1.30;97332.00;;;;111803;1241;41384;-64
2022/01/28 10:38:34;;;;;;;58.10;26.40;;;;;1.30;97335.00;;;;111689;1241;41140;-64
2022/01/28 10:41:15;;;;;;;51.80;25.80;;;;;1.30;97336.00;;;;111608;1243;42058;-63
2022/01/28 10:43:48;;;;;;;;;;;;;1.34;97327.40;;;;111856;1239;41114;-65
2022/01/28 10:46:26;;;;;;;51.40;25.00;;;;;1.36;97329.60;;;;111841;1241;41129;-61
2022/01/28 10:48:56;;;;;;;57.10;28.00;;;;;1.32;97327.20;;;;111918;1241;41139;-66
2022/01/28 10:51:42;;;;;;;52.10;25.00;;;;;1.32;97329.20;;;;111897;1241;41838;-64
2022/01/28 10:54:22;;;;;;;51.50;23.30;;;;;1.40;97331.80;;;;111799;1241;41709;-61
2022/01/28 10:57:00;;;;;;;52.40;23.80;;;;;1.50;97333.60;;;;111827;1241;41605;-67
2022/01/28 10:59:38;;;;;;;51.20;23.50;;;;;1.50;97331.40;;;;111775;1241;41334;-64
2022/01/28 11:02:07;;;;;;;46.80;23.00;;;;;1.50;97335.20;;;;111852;1242;41252;-64
2022/01/28 11:04:38;;;;;;;50.20;24.20;;;;;1.60;97336.40;;;;111605;1243;41140;-65
2022/01/28 11:07:07;;;;;;;45.10;21.90;;;;;1.52;97335.20;;;;111538;1243;41255;-65
2022/01/28 11:09:36;;;;;;;43.90;22.10;;;;;1.60;97335.20;;;;111546;1243;41146;-64
2022/01/28 11:12:06;;;;;;;51.40;23.40;;;;;1.60;97329.40;;;;111844;1241;41483;-66
2022/01/28 11:14:35;;;;;;;45.90;23.10;;;;;1.60;97332.00;;;;111546;1242;41147;-63
2022/01/28 11:17:04;;;;;;;45.50;20.70;;;;;1.60;97326.80;;;;111834;1241;41124;-66
2022/01/28 11:19:35;;;;;;;47.80;23.30;;;;;1.66;97330.00;;;;111836;1241;41459;-65
2022/01/28 11:22:21;;;;;;;45.20;21.00;;;;;1.70;97326.60;;;;111561;1241;41183;-60
2022/01/28 11:25:14;;;;;;;46.20;20.20;;;;;1.70;97325.80;;;;111573;1242;41606;-63
2022/01/28 11:27:47;;;;;;;47.60;23.00;;;;;1.80;97334.20;;;;111854;1241;41143;-68
2022/01/28 11:30:16;;;;;;;44.30;21.70;;;;;1.80;97335.80;;;;111792;1241;42356;-63
2022/01/28 11:33:08;;;;;;;44.30;20.90;;;;;1.90;97329.40;;;;111775;1242;41762;-61
2022/01/28 11:35:59;;;;;;;48.00;23.00;;;;;1.90;97329.80;;;;111680;1243;41232;-64
2022/01/28 11:38:31;;;;;;;43.10;20.20;;;;;1.90;97333.40;;;;111734;1241;42121;-66
2022/01/28 11:41:06;;;;;;;44.60;22.00;;;;;1.90;97331.20;;;;111832;1241;42206;-67
2022/01/28 11:43:45;;;;;;;47.10;21.60;;;;;1.98;97334.40;;;;111727;1241;41117;-65
2022/01/28 11:46:20;;;;;;;46.30;20.60;;;;;2.00;97336.20;;;;111660;1241;41238;-67
2022/01/28 11:48:55;;;;;;;48.10;21.90;;;;;2.00;97336.40;;;;111682;1241;41157;-64
2022/01/28 11:51:35;;;;;;;54.20;25.70;;;;;1.90;97337.80;;;;111356;1243;41702;-68
2022/01/28 11:54:06;;;;;;;52.30;23.50;;;;;1.90;97346.20;;;;111661;1243;42934;-63
2022/01/28 11:56:39;;;;;;;;;;;;;1.88;97350.00;;;;111711;1241;41140;-62
2022/01/28 11:59:12;;;;;;;49.40;23.90;;;;;1.86;97351.60;;;;111636;1241;42119;-63
2022/01/28 12:01:43;;;;;;;45.20;20.70;;;;;1.80;97347.80;;;;111668;1241;41290;-63
2022/01/28 12:04:25;;;;;;;38.90;19.10;;;;;1.80;97352.00;;;;111735;1242;41135;-63
2022/01/28 12:07:10;;;;;;;40.70;19.70;;;;;1.80;97356.00;;;;111823;1241;41345;-64
2022/01/28 12:09:41;;;;;;;38.10;17.80;;;;;1.80;97351.40;;;;111702;1243;41797;-62
2022/01/28 12:12:12;;;;;;;;;;;;;1.90;97350.40;;;;111369;1244;41127;-63
2022/01/28 12:14:52;;;;;;;35.20;16.70;;;;;1.90;97352.00;;;;111630;1242;41502;-63
2022/01/28 12:17:30;;;;;;;34.60;16.20;;;;;1.90;97350.40;;;;111735;1241;41135;-68
2022/01/28 12:20:15;;;;;;;33.90;16.60;;;;;1.92;97346.20;;;;111758;1241;41139;-64
2022/01/28 12:23:02;;;;;;;32.00;15.50;;;;;1.98;97345.40;;;;111709;1243;41130;-63
2022/01/28 12:25:43;;;;;;;35.10;17.40;;;;;2.00;97347.00;;;;111746;1241;41130;-64
2022/01/28 12:28:22;;;;;;;28.40;14.70;;;;;2.00;97344.80;;;;111745;1241;41587;-67
2022/01/28 12:31:06;;;;;;;29.90;12.60;;;;;2.12;97339.60;;;;111754;1241;41287;-67
2022/01/28 12:33:38;;;;;;;30.80;14.00;;;;;2.20;97335.20;;;;111781;1241;41139;-67
2022/01/28 12:36:17;;;;;;;29.20;14.40;;;;;2.14;97336.40;;;;111762;1241;41610;-65
2022/01/28 12:39:06;;;;;;;28.80;14.10;;;;;2.10;97333.80;;;;111779;1243;41203;-62
2022/01/28 12:41:50;;;;;;;27.10;13.20;;;;;2.20;97335.40;;;;111796;1242;41594;-62
2022/01/28 12:44:20;;;;;;;33.20;14.30;;;;;2.14;97331.00;;;;111736;1241;41726;-63
2022/01/28 12:46:56;;;;;;;34.30;16.70;;;;;2.22;97328.00;;;;111791;1241;41140;-64
2022/01/28 12:49:34;;;;;;;34.30;16.30;;;;;2.20;97325.00;;;;111720;1243;41954;-65
2022/01/28 12:52:08;;;;;;;35.20;16.50;;;;;2.20;97321.00;;;;111745;1241;41124;-62
2022/01/28 12:54:43;;;;;;;32.40;16.50;;;;;2.20;97320.60;;;;111492;1243;41603;-67
2022/01/28 12:57:18;;;;;;;34.00;16.20;;;;;2.30;97325.80;;;;111735;1241;41146;-67
2022/01/28 12:59:49;;;;;;;34.90;16.50;;;;;2.30;97323.20;;;;111780;1242;41622;-63
2022/01/28 13:02:19;;;;;;;35.80;16.60;;;;;2.38;97326.60;;;;111633;1241;41136;-64
2022/01/28 13:04:56;;;;;;;41.70;16.80;;;;;2.30;97326.40;;;;111773;1242;41650;-64
2022/01/28 13:10:24;;;;;;;31.90;16.30;;;;;2.30;97324.00;;;;111795;1241;41486;-68
2022/01/28 13:13:08;;;;;;;32.00;15.90;;;;;2.50;97320.20;;;;111753;1243;41134;-65
2022/01/28 13:15:39;;;;;;;33.10;15.60;;;;;2.50;97320.20;;;;111687;1242;42217;-62
2022/01/28 13:18:08;;;;;;;32.50;15.80;;;;;2.56;97320.60;;;;111806;1242;41166;-65
2022/01/28 13:20:40;;;;;;;30.10;14.60;;;;;3.08;97310.80;;;;111794;1241;41146;-62
2022/01/28 13:23:10;;;;;;;;;;;;;3.64;97294.60;;;;111529;1243;41153;-63
2022/01/28 13:25:39;;;;;;;32.50;14.80;;;;;4.48;97304.60;;;;111775;1241;41209;-64
2022/01/28 13:28:15;;;;;;;31.50;14.80;;;;;5.02;97303.00;;;;111751;1243;41146;-64
2022/01/28 13:30:56;;;;;;;30.00;14.00;;;;;4.90;97297.40;;;;111774;1241;41900;-64
2022/01/28 13:33:30;;;;;;;29.50;14.10;;;;;4.90;97299.20;;;;111789;1242;41622;-62
2022/01/28 13:36:01;;;;;;;31.60;15.60;;;;;4.50;97306.40;;;;111705;1241;41396;-65
2022/01/28 13:38:34;;;;;;;;;;;;;4.50;97302.80;;;;111658;1242;42166;-61
2022/01/28 13:41:20;;;;;;;31.10;15.20;;;;;4.04;97308.40;;;;111725;1243;41127;-62
2022/01/28 13:43:49;;;;;;;28.80;13.10;;;;;3.70;97308.80;;;;111839;1242;41368;-65
2022/01/28 13:46:18;;;;;;;31.70;14.00;;;;;3.68;97307.80;;;;111426;1243;41243;-66
2022/01/28 13:48:48;;;;;;;29.20;13.10;;;;;3.62;97311.60;;;;111504;1243;41706;-67
2022/01/28 13:51:21;;;;;;;29.00;13.50;;;;;3.60;97309.40;;;;111659;1241;41139;-64